Time,TemperatureF,DewpointF,PressureIn,WindDirection,WindDirectionDegrees,WindSpeedMPH,WindSpeedGustMPH,Humidity,HourlyPrecipIn,Conditions,Clouds,dailyrainin,SoftwareType,DateUTC
2013-07-20 00:00:00,69.4,39.1,17.72,West,263,0.0,0.0,33,0.00,,---,0.00,VWS V14.01,2013-07-20 04:00:00,
2013-07-20 00:01:00,69.4,39.1,17.72,West,263,0.0,0.0,33,0.00,,---,0.00,VWS V14.01,2013-07-20 04:01:00,
2013-07-20 00:06:00,69.4,39.1,17.72,South,180,0.0,0.0,33,0.00,,---,0.00,VWS V14.01,2013-07-20 04:06:00,
2013-07-20 00:11:00,69.6,39.3,17.72,NNE,30,0.0,0.0,33,0.00,,---,0.00,VWS V14.01,2013-07-20 04:11:00,
2013-07-20 00:16:00,69.6,39.3,17.72,NW,323,0.0,0.0,33,0.00,,---,0.00,VWS V14.01,2013-07-20 04:16:00,
2013-07-20 00:21:00,69.4,39.1,17.72,SE,138,0.0,0.0,33,0.00,,---,0.00,VWS V14.01,2013-07-20 04:21:00,
2013-07-20 00:26:00,69.6,39.3,17.72,NNW,344,0.0,0.0,33,0.00,,---,0.00,VWS V14.01,2013-07-20 04:26:00,
2013-07-20 00:31:00,69.6,39.3,17.72,SSW,207,0.0,0.0,33,0.00,,---,0.00,VWS V14.01,2013-07-20 04:31:00,
2013-07-20 00:36:00,69.8,39.4,17.72,West,263,0.0,0.0,33,0.00,,---,0.00,VWS V14.01,2013-07-20 04:36:00,
2013-07-20 00:41:00,69.8,39.4,17.72,ENE,59,0.0,0.0,33,0.00,,---,0.00,VWS V14.01,2013-07-20 04:41:00,
2013-07-20 00:46:00,69.8,39.4,17.72,ENE,59,0.0,0.0,33,0.00,,---,0.00,VWS V14.01,2013-07-20 04:46:00,
2013-07-20 00:51:00,69.8,39.4,17.72,North,5,0.0,0.0,33,0.00,,---,0.00,VWS V14.01,2013-07-20 04:51:00,
2013-07-20 00:56:00,69.8,39.4,17.72,SSW,192,0.0,0.0,33,0.00,,---,0.00,VWS V14.01,2013-07-20 04:56:00,
2013-07-20 01:01:00,69.6,39.3,17.72,SSW,194,0.0,0.0,33,0.00,,---,0.00,VWS V14.01,2013-07-20 05:01:00,
2013-07-20 01:06:00,69.6,39.3,17.72,North,2,0.0,0.0,33,0.00,,---,0.00,VWS V14.01,2013-07-20 05:06:00,
2013-07-20 01:11:00,69.4,39.1,17.72,West,271,0.0,0.0,33,0.00,,---,0.00,VWS V14.01,2013-07-20 05:11:00,
2013-07-20 01:16:00,69.1,38.8,17.72,WSW,248,0.0,0.0,33,0.00,,---,0.00,VWS V14.01,2013-07-20 05:16:00,
2013-07-20 01:21:00,69.3,39.0,17.72,WSW,249,0.0,0.0,33,0.00,,---,0.00,VWS V14.01,2013-07-20 05:21:00,
2013-07-20 01:26:00,69.1,38.8,17.72,NNE,24,0.0,0.0,33,0.00,,---,0.00,VWS V14.01,2013-07-20 05:26:00,
2013-07-20 01:31:00,69.1,38.8,17.72,WSW,252,0.0,0.0,33,0.00,,---,0.00,VWS V14.01,2013-07-20 05:31:00,
2013-07-20 01:36:00,69.1,38.8,17.72,NE,44,0.0,0.0,33,0.00,,---,0.00,VWS V14.01,2013-07-20 05:36:00,
2013-07-20 01:41:00,68.9,38.6,17.72,SSE,151,0.0,0.0,33,0.00,,---,0.00,VWS V14.01,2013-07-20 05:41:00,
2013-07-20 01:46:00,68.9,38.6,17.72,NW,321,0.0,0.0,33,0.00,,---,0.00,VWS V14.01,2013-07-20 05:46:00,
2013-07-20 01:51:00,68.7,38.5,17.72,SSW,206,0.0,0.0,33,0.00,,---,0.00,VWS V14.01,2013-07-20 05:51:00,
2013-07-20 01:56:00,68.7,38.5,17.72,SW,232,0.0,0.0,33,0.00,,---,0.00,VWS V14.01,2013-07-20 05:56:00,
2013-07-20 02:01:00,68.5,38.3,17.72,WSW,246,0.0,0.0,33,0.00,,---,0.00,VWS V14.01,2013-07-20 06:01:00,
2013-07-20 02:06:00,68.5,38.3,17.72,ENE,63,0.0,0.0,33,0.00,,---,0.00,VWS V14.01,2013-07-20 06:06:00,
2013-07-20 02:11:00,68.5,38.3,17.72,East,85,0.0,0.0,33,0.00,,---,0.00,VWS V14.01,2013-07-20 06:11:00,
2013-07-20 02:16:00,68.4,38.2,17.72,SSW,209,0.0,0.0,33,0.00,,---,0.00,VWS V14.01,2013-07-20 06:16:00,
2013-07-20 02:21:00,68.4,38.2,17.72,NNE,28,0.0,0.0,33,0.00,,---,0.00,VWS V14.01,2013-07-20 06:21:00,
2013-07-20 02:26:00,68.4,38.2,17.72,NNW,348,0.0,0.0,33,0.00,,---,0.00,VWS V14.01,2013-07-20 06:26:00,
2013-07-20 02:31:00,68.2,38.0,17.72,NNW,348,0.0,0.0,33,0.00,,---,0.00,VWS V14.01,2013-07-20 06:31:00,
2013-07-20 02:36:00,68.2,38.0,17.72,NNW,348,0.0,0.0,33,0.00,,---,0.00,VWS V14.01,2013-07-20 06:36:00,
2013-07-20 02:41:00,68.2,38.0,17.72,ESE,122,0.0,0.0,33,0.00,,---,0.00,VWS V14.01,2013-07-20 06:41:00,
2013-07-20 02:46:00,68.2,38.0,17.72,WSW,249,0.0,0.0,33,0.00,,---,0.00,VWS V14.01,2013-07-20 06:46:00,
2013-07-20 02:51:00,68.0,37.8,17.72,SSW,210,0.0,0.0,33,0.00,,---,0.00,VWS V14.01,2013-07-20 06:51:00,
2013-07-20 02:56:00,67.8,37.7,17.72,SSW,209,0.0,0.0,33,0.00,,---,0.00,VWS V14.01,2013-07-20 06:56:00,
2013-07-20 03:01:00,67.6,37.5,17.72,North,7,0.0,0.0,33,0.00,,---,0.00,VWS V14.01,2013-07-20 07:01:00,
2013-07-20 03:06:00,67.5,37.4,17.72,NNE,19,0.0,0.0,33,0.00,,---,0.00,VWS V14.01,2013-07-20 07:06:00,
2013-07-20 03:11:00,67.5,37.4,17.72,West,277,0.0,0.0,33,0.00,,---,0.00,VWS V14.01,2013-07-20 07:11:00,
2013-07-20 03:16:00,67.5,37.4,17.72,SSW,201,0.0,0.0,33,0.00,,---,0.00,VWS V14.01,2013-07-20 07:16:00,
2013-07-20 03:21:00,67.3,37.2,17.72,SW,232,0.0,0.0,33,0.00,,---,0.00,VWS V14.01,2013-07-20 07:21:00,
2013-07-20 03:26:00,67.3,37.2,17.72,NNW,342,0.0,0.0,33,0.00,,---,0.00,VWS V14.01,2013-07-20 07:26:00,
2013-07-20 03:31:00,67.3,37.2,17.72,NNE,21,0.0,0.0,33,0.00,,---,0.00,VWS V14.01,2013-07-20 07:31:00,
2013-07-20 03:36:00,67.3,37.2,17.72,NNW,333,0.0,0.0,33,0.00,,---,0.00,VWS V14.01,2013-07-20 07:36:00,
2013-07-20 03:41:00,67.5,37.4,17.72,NNW,333,0.0,0.0,33,0.00,,---,0.00,VWS V14.01,2013-07-20 07:41:00,
2013-07-20 03:46:00,67.3,37.2,17.72,NNE,31,0.0,0.0,33,0.00,,---,0.00,VWS V14.01,2013-07-20 07:46:00,
2013-07-20 03:51:00,67.5,37.4,17.72,North,0,0.0,0.0,33,0.00,,---,0.00,VWS V14.01,2013-07-20 07:51:00,
2013-07-20 03:56:00,67.3,37.2,17.72,North,3,0.0,0.0,33,0.00,,---,0.00,VWS V14.01,2013-07-20 07:56:00,
2013-07-20 04:01:00,67.3,37.2,17.72,North,3,0.0,0.0,33,0.00,,---,0.00,VWS V14.01,2013-07-20 08:01:00,
2013-07-20 04:06:00,67.3,37.2,17.72,North,0,0.0,0.0,33,0.00,,---,0.00,VWS V14.01,2013-07-20 08:06:00,
2013-07-20 04:11:00,67.3,37.2,17.72,ENE,65,0.0,0.0,33,0.00,,---,0.00,VWS V14.01,2013-07-20 08:11:00,
2013-07-20 04:16:00,67.1,37.1,17.72,West,270,0.0,0.0,33,0.00,,---,0.00,VWS V14.01,2013-07-20 08:16:00,
2013-07-20 04:21:00,67.1,37.1,17.72,SSE,156,0.0,0.0,33,0.00,,---,0.00,VWS V14.01,2013-07-20 08:21:00,
2013-07-20 04:26:00,67.1,37.1,17.72,West,262,2.2,3.6,33,0.00,,---,0.00,VWS V14.01,2013-07-20 08:26:00,
2013-07-20 04:31:00,67.3,37.2,17.72,SW,224,0.0,0.0,33,0.00,,---,0.00,VWS V14.01,2013-07-20 08:31:00,
2013-07-20 04:36:00,67.5,37.4,17.72,SW,214,0.0,0.0,33,0.00,,---,0.00,VWS V14.01,2013-07-20 08:36:00,
2013-07-20 04:41:00,67.8,37.7,17.72,ENE,68,0.0,0.0,33,0.00,,---,0.00,VWS V14.01,2013-07-20 08:41:00,
2013-07-20 04:46:00,67.8,37.7,17.72,ENE,73,0.0,0.0,33,0.00,,---,0.00,VWS V14.01,2013-07-20 08:46:00,
2013-07-20 04:51:00,68.0,37.8,17.72,NNE,21,3.6,3.6,33,0.00,,---,0.00,VWS V14.01,2013-07-20 08:51:00,
2013-07-20 04:56:00,68.2,38.0,17.72,SW,224,0.0,0.0,33,0.00,,---,0.00,VWS V14.01,2013-07-20 08:56:00,
2013-07-20 05:01:00,68.4,38.2,17.72,SSW,207,0.0,0.0,33,0.00,,---,0.00,VWS V14.01,2013-07-20 09:01:00,
2013-07-20 05:06:00,68.4,38.2,17.72,SSW,207,0.0,0.0,33,0.00,,---,0.00,VWS V14.01,2013-07-20 09:06:00,
2013-07-20 05:11:00,68.2,38.0,17.72,NE,35,0.0,0.0,33,0.00,,---,0.00,VWS V14.01,2013-07-20 09:11:00,
2013-07-20 05:16:00,68.2,38.0,17.72,NNE,24,0.0,0.0,33,0.00,,---,0.00,VWS V14.01,2013-07-20 09:16:00,
2013-07-20 05:21:00,68.2,38.0,17.72,NNE,24,0.0,0.0,33,0.00,,---,0.00,VWS V14.01,2013-07-20 09:21:00,
2013-07-20 05:26:00,68.0,37.8,17.72,North,349,0.0,0.0,33,0.00,,---,0.00,VWS V14.01,2013-07-20 09:26:00,
2013-07-20 05:31:00,67.8,38.5,17.72,SW,219,0.0,0.0,34,0.00,,---,0.00,VWS V14.01,2013-07-20 09:31:00,
2013-07-20 05:36:00,67.6,38.3,17.72,SSW,207,0.0,0.0,34,0.00,,---,0.00,VWS V14.01,2013-07-20 09:36:00,
2013-07-20 05:41:00,67.6,38.3,17.72,ENE,58,0.0,0.0,34,0.00,,---,0.00,VWS V14.01,2013-07-20 09:41:00,
2013-07-20 05:46:00,67.8,38.5,17.72,NNE,14,0.0,0.0,34,0.00,,---,0.00,VWS V14.01,2013-07-20 09:46:00,
2013-07-20 05:51:00,67.8,38.5,17.72,NNE,14,0.0,0.0,34,0.00,,---,0.00,VWS V14.01,2013-07-20 09:51:00,
2013-07-20 05:56:00,67.8,38.5,17.72,NNE,16,0.0,0.0,34,0.00,,---,0.00,VWS V14.01,2013-07-20 09:56:00,
2013-07-20 06:01:00,68.0,37.8,17.72,NNE,16,0.0,0.0,33,0.00,,---,0.00,VWS V14.01,2013-07-20 10:01:00,
2013-07-20 06:06:00,68.0,37.8,17.72,NNE,15,0.0,0.0,33,0.00,,---,0.00,VWS V14.01,2013-07-20 10:06:00,
2013-07-20 06:11:00,68.0,37.8,17.72,North,357,0.0,0.0,33,0.00,,---,0.00,VWS V14.01,2013-07-20 10:11:00,
2013-07-20 06:16:00,68.0,37.8,17.72,North,357,0.0,0.0,33,0.00,,---,0.00,VWS V14.01,2013-07-20 10:16:00,
2013-07-20 06:21:00,68.2,38.0,17.72,North,357,0.0,0.0,33,0.00,,---,0.00,VWS V14.01,2013-07-20 10:21:00,
2013-07-20 06:26:00,68.0,37.8,17.72,North,357,0.0,0.0,33,0.00,,---,0.00,VWS V14.01,2013-07-20 10:26:00,
2013-07-20 06:31:00,68.2,38.0,17.72,NNW,327,0.0,0.0,33,0.00,,---,0.00,VWS V14.01,2013-07-20 10:31:00,
2013-07-20 06:36:00,68.4,38.2,17.72,NNW,348,0.0,0.0,33,0.00,,---,0.00,VWS V14.01,2013-07-20 10:36:00,
2013-07-20 06:41:00,68.4,38.2,17.72,NNW,348,0.0,0.0,33,0.00,,---,0.00,VWS V14.01,2013-07-20 10:41:00,
2013-07-20 06:46:00,68.4,38.2,17.72,WNW,290,0.0,0.0,33,0.00,,---,0.00,VWS V14.01,2013-07-20 10:46:00,
2013-07-20 06:51:00,68.5,38.3,17.72,NW,326,0.0,0.0,33,0.00,,---,0.00,VWS V14.01,2013-07-20 10:51:00,
2013-07-20 06:56:00,68.5,38.3,17.72,North,9,0.0,0.0,33,0.00,,---,0.00,VWS V14.01,2013-07-20 10:56:00,
2013-07-20 07:01:00,68.7,38.5,17.72,NE,38,0.0,0.0,33,0.00,,---,0.00,VWS V14.01,2013-07-20 11:01:00,
2013-07-20 07:06:00,68.7,38.5,17.72,SSE,167,0.0,0.0,33,0.00,,---,0.00,VWS V14.01,2013-07-20 11:06:00,
2013-07-20 07:11:00,68.7,38.5,17.72,North,0,0.0,0.0,33,0.00,,---,0.00,VWS V14.01,2013-07-20 11:11:00,
2013-07-20 07:16:00,68.7,38.5,17.72,North,0,0.0,0.0,33,0.00,,---,0.00,VWS V14.01,2013-07-20 11:16:00,
2013-07-20 07:21:00,68.9,38.6,17.72,SE,142,0.0,0.0,33,0.00,,---,0.00,VWS V14.01,2013-07-20 11:21:00,
2013-07-20 07:26:00,69.1,38.8,17.72,NNE,16,0.0,0.0,33,0.00,,---,0.00,VWS V14.01,2013-07-20 11:26:00,
2013-07-20 07:31:00,69.1,38.8,17.72,NE,34,0.0,0.0,33,0.00,,---,0.00,VWS V14.01,2013-07-20 11:31:00,
2013-07-20 07:36:00,69.3,39.0,17.72,WNW,293,2.7,2.7,33,0.00,,---,0.00,VWS V14.01,2013-07-20 11:36:00,
2013-07-20 07:41:00,69.3,39.0,17.72,WNW,295,0.0,0.0,33,0.00,,---,0.00,VWS V14.01,2013-07-20 11:41:00,
2013-07-20 07:46:00,69.4,39.1,17.72,NW,313,3.6,3.6,33,0.00,,---,0.00,VWS V14.01,2013-07-20 11:46:00,
2013-07-20 07:51:00,69.4,39.1,17.72,SE,145,0.0,0.0,33,0.00,,---,0.00,VWS V14.01,2013-07-20 11:51:00,
2013-07-20 07:56:00,69.4,39.1,17.72,South,181,0.0,0.0,33,0.00,,---,0.00,VWS V14.01,2013-07-20 11:56:00,
2013-07-20 08:01:00,69.8,39.4,17.72,SW,222,0.0,2.7,33,0.00,,---,0.00,VWS V14.01,2013-07-20 12:01:00,
2013-07-20 08:06:00,69.6,39.3,17.72,ESE,117,0.0,0.0,33,0.00,,---,0.00,VWS V14.01,2013-07-20 12:06:00,
2013-07-20 08:11:00,69.6,39.3,17.72,North,4,0.0,3.1,33,0.00,,---,0.00,VWS V14.01,2013-07-20 12:11:00,
2013-07-20 08:16:00,69.8,39.4,17.72,NNW,348,0.0,0.0,33,0.00,,---,0.00,VWS V14.01,2013-07-20 12:16:00,
2013-07-20 08:21:00,69.8,39.4,17.72,NNW,327,0.0,0.0,33,0.00,,---,0.00,VWS V14.01,2013-07-20 12:21:00,
2013-07-20 08:26:00,69.6,39.3,17.72,NNW,327,0.0,0.0,33,0.00,,---,0.00,VWS V14.01,2013-07-20 12:26:00,
2013-07-20 08:31:00,69.4,39.1,17.72,NNW,327,0.0,0.0,33,0.00,,---,0.00,VWS V14.01,2013-07-20 12:31:00,
2013-07-20 08:36:00,69.4,39.1,17.72,NNW,327,0.0,0.0,33,0.00,,---,0.00,VWS V14.01,2013-07-20 12:36:00,
2013-07-20 08:40:00,69.3,39.0,17.72,NE,36,0.0,0.0,33,0.00,,---,0.00,VWS V14.01,2013-07-20 12:40:00,
2013-07-20 08:45:00,69.3,39.0,17.72,NE,36,0.0,0.0,33,0.00,,---,0.00,VWS V14.01,2013-07-20 12:45:00,
2013-07-20 08:50:00,69.3,39.0,17.72,South,176,0.0,0.0,33,0.00,,---,0.00,VWS V14.01,2013-07-20 12:50:00,
2013-07-20 08:55:00,69.4,39.1,17.72,SW,215,0.0,0.0,33,0.00,,---,0.00,VWS V14.01,2013-07-20 12:55:00,
2013-07-20 09:00:00,69.4,39.1,17.72,SSW,205,0.0,0.0,33,0.00,,---,0.00,VWS V14.01,2013-07-20 13:00:00,
2013-07-20 09:05:00,69.6,39.3,17.72,SSW,205,0.0,0.0,33,0.00,,---,0.00,VWS V14.01,2013-07-20 13:05:00,
2013-07-20 09:10:00,69.4,39.1,17.72,North,6,0.0,0.0,33,0.00,,---,0.00,VWS V14.01,2013-07-20 13:10:00,
2013-07-20 09:15:00,69.4,39.1,17.72,NNW,346,0.0,2.7,33,0.00,,---,0.00,VWS V14.01,2013-07-20 13:15:00,
2013-07-20 09:20:00,69.3,39.0,17.72,NNE,28,0.0,0.0,33,0.00,,---,0.00,VWS V14.01,2013-07-20 13:20:00,
2013-07-20 09:25:00,69.4,39.1,17.72,ENE,58,0.0,0.0,33,0.00,,---,0.00,VWS V14.01,2013-07-20 13:25:00,
2013-07-20 09:30:00,69.3,39.0,17.72,NNE,12,0.0,0.0,33,0.00,,---,0.00,VWS V14.01,2013-07-20 13:30:00,
2013-07-20 09:35:00,69.4,39.1,17.72,NE,55,0.0,0.0,33,0.00,,---,0.00,VWS V14.01,2013-07-20 13:35:00,
2013-07-20 09:40:00,69.1,38.8,17.72,ENE,72,0.0,0.0,33,0.00,,---,0.00,VWS V14.01,2013-07-20 13:40:00,
2013-07-20 09:45:00,68.9,38.6,17.72,North,353,2.2,2.2,33,0.00,,---,0.00,VWS V14.01,2013-07-20 13:45:00,
2013-07-20 09:50:00,68.9,38.6,17.72,NNE,17,0.0,0.0,33,0.00,,---,0.00,VWS V14.01,2013-07-20 13:50:00,
2013-07-20 09:55:00,69.1,38.8,17.72,NNE,17,0.0,0.0,33,0.00,,---,0.00,VWS V14.01,2013-07-20 13:55:00,
2013-07-20 10:00:00,69.3,39.0,17.72,NNE,17,0.0,0.0,33,0.00,,---,0.00,VWS V14.01,2013-07-20 14:00:00,
2013-07-20 10:05:00,69.4,39.1,17.72,WSW,256,0.0,0.0,33,0.00,,---,0.00,VWS V14.01,2013-07-20 14:05:00,
2013-07-20 10:10:00,69.6,39.3,17.72,NNE,13,0.0,0.0,33,0.00,,---,0.00,VWS V14.01,2013-07-20 14:10:00,
2013-07-20 10:15:00,69.4,39.1,17.72,North,350,0.0,0.0,33,0.00,,---,0.00,VWS V14.01,2013-07-20 14:15:00,
2013-07-20 10:20:00,69.4,39.1,17.72,ENE,57,0.0,0.0,33,0.00,,---,0.00,VWS V14.01,2013-07-20 14:20:00,
2013-07-20 10:25:00,69.8,39.4,17.72,NNW,341,0.0,0.0,33,0.00,,---,0.00,VWS V14.01,2013-07-20 14:25:00,
2013-07-20 10:30:00,69.6,39.3,17.72,NNW,329,0.0,0.0,33,0.00,,---,0.00,VWS V14.01,2013-07-20 14:30:00,
2013-07-20 10:35:00,69.8,39.4,17.72,NNE,29,0.0,0.0,33,0.00,,---,0.00,VWS V14.01,2013-07-20 14:35:00,
2013-07-20 10:40:00,69.8,39.4,17.72,SE,128,0.0,0.0,33,0.00,,---,0.00,VWS V14.01,2013-07-20 14:40:00,
2013-07-20 10:45:00,69.8,39.4,17.72,SE,135,0.0,0.0,33,0.00,,---,0.00,VWS V14.01,2013-07-20 14:45:00,
2013-07-20 10:50:00,70.0,39.6,17.72,SE,135,0.0,0.0,33,0.00,,---,0.00,VWS V14.01,2013-07-20 14:50:00,
2013-07-20 10:55:00,70.0,39.6,17.72,NW,312,0.0,3.1,33,0.00,,---,0.00,VWS V14.01,2013-07-20 14:55:00,
2013-07-20 11:00:00,69.8,39.4,17.72,NNE,32,0.0,0.0,33,0.00,,---,0.00,VWS V14.01,2013-07-20 15:00:00,
2013-07-20 11:05:00,69.8,39.4,17.72,NNW,338,0.0,0.0,33,0.00,,---,0.00,VWS V14.01,2013-07-20 15:05:00,
2013-07-20 11:10:00,70.2,39.7,17.72,ENE,72,0.0,0.0,33,0.00,,---,0.00,VWS V14.01,2013-07-20 15:10:00,
2013-07-20 11:15:00,70.5,40.1,17.72,West,274,3.1,3.1,33,0.00,,---,0.00,VWS V14.01,2013-07-20 15:15:00,
2013-07-20 11:20:00,70.5,40.1,17.72,SW,223,0.0,0.0,33,0.00,,---,0.00,VWS V14.01,2013-07-20 15:20:00,
2013-07-20 11:25:00,70.7,40.2,17.72,NW,310,0.0,0.0,33,0.00,,---,0.00,VWS V14.01,2013-07-20 15:25:00,
2013-07-20 11:30:00,70.9,40.4,17.72,NW,310,0.0,0.0,33,0.00,,---,0.00,VWS V14.01,2013-07-20 15:30:00,
2013-07-20 11:35:00,71.1,40.5,17.72,NNE,18,0.0,0.0,33,0.00,,---,0.00,VWS V14.01,2013-07-20 15:35:00,
2013-07-20 11:40:00,72.0,40.5,17.72,NNE,18,0.0,0.0,32,0.00,,---,0.00,VWS V14.01,2013-07-20 15:40:00,
2013-07-20 11:45:00,71.4,40.8,17.72,NNE,18,0.0,0.0,33,0.00,,---,0.00,VWS V14.01,2013-07-20 15:45:00,
2013-07-20 11:50:00,71.6,40.2,17.72,South,180,0.0,0.0,32,0.00,,---,0.00,VWS V14.01,2013-07-20 15:50:00,
2013-07-20 11:55:00,71.6,40.2,17.72,South,180,0.0,0.0,32,0.00,,---,0.00,VWS V14.01,2013-07-20 15:55:00,
2013-07-20 12:00:00,71.6,40.2,17.72,SSE,150,0.0,0.0,32,0.00,,---,0.00,VWS V14.01,2013-07-20 16:00:00,
2013-07-20 12:05:00,71.6,40.2,17.72,NNW,327,0.0,0.0,32,0.00,,---,0.00,VWS V14.01,2013-07-20 16:05:00,
2013-07-20 12:10:00,71.4,40.8,17.72,WSW,249,0.0,0.0,33,0.00,,---,0.00,VWS V14.01,2013-07-20 16:10:00,
2013-07-20 12:15:00,71.4,40.8,17.72,WSW,242,0.0,0.0,33,0.00,,---,0.00,VWS V14.01,2013-07-20 16:15:00,
2013-07-20 12:20:00,69.8,38.6,17.72,NW,309,3.1,3.1,32,0.00,,---,0.00,VWS V14.01,2013-07-20 16:20:00,
2013-07-20 12:25:00,68.9,38.6,17.72,SW,231,4.0,4.0,33,0.00,,---,0.00,VWS V14.01,2013-07-20 16:25:00,
2013-07-20 12:30:00,67.6,38.3,17.72,North,353,0.0,0.0,34,0.00,,---,0.00,VWS V14.01,2013-07-20 16:30:00,
2013-07-20 12:35:00,66.7,37.5,17.72,South,173,0.0,0.0,34,0.00,,---,0.00,VWS V14.01,2013-07-20 16:35:00,
2013-07-20 12:40:00,66.0,36.9,17.72,South,173,0.0,0.0,34,0.00,,---,0.00,VWS V14.01,2013-07-20 16:40:00,
2013-07-20 12:45:00,65.7,36.6,17.72,South,173,0.0,0.0,34,0.00,,---,0.00,VWS V14.01,2013-07-20 16:45:00,
2013-07-20 12:50:00,65.7,36.6,17.72,South,173,0.0,0.0,34,0.00,,---,0.00,VWS V14.01,2013-07-20 16:50:00,
2013-07-20 12:55:00,65.5,36.4,17.72,South,173,0.0,0.0,34,0.00,,---,0.00,VWS V14.01,2013-07-20 16:55:00,
2013-07-20 13:00:00,65.3,36.2,17.72,South,173,0.0,0.0,34,0.00,,---,0.00,VWS V14.01,2013-07-20 17:00:00,
2013-07-20 13:05:00,65.5,36.4,17.72,South,173,0.0,0.0,34,0.00,,---,0.00,VWS V14.01,2013-07-20 17:05:00,
2013-07-20 13:10:00,65.5,36.4,17.72,ENE,68,0.0,0.0,34,0.00,,---,0.00,VWS V14.01,2013-07-20 17:10:00,
2013-07-20 13:15:00,65.1,36.1,17.72,ENE,68,0.0,0.0,34,0.00,,---,0.00,VWS V14.01,2013-07-20 17:15:00,
2013-07-20 13:20:00,65.5,36.4,17.72,ENE,68,0.0,0.0,34,0.00,,---,0.00,VWS V14.01,2013-07-20 17:20:00,
2013-07-20 13:25:00,65.1,36.1,17.72,ENE,68,0.0,0.0,34,0.00,,---,0.00,VWS V14.01,2013-07-20 17:25:00,
2013-07-20 13:30:00,65.5,36.4,17.72,ENE,68,0.0,0.0,34,0.00,,---,0.00,VWS V14.01,2013-07-20 17:30:00,
2013-07-20 13:35:00,65.7,36.6,17.72,SW,217,0.0,0.0,34,0.00,,---,0.00,VWS V14.01,2013-07-20 17:35:00,
2013-07-20 13:40:00,65.5,36.4,17.72,SSW,194,0.0,0.0,34,0.00,,---,0.00,VWS V14.01,2013-07-20 17:40:00,
2013-07-20 13:45:00,65.7,36.6,17.72,SSW,194,0.0,0.0,34,0.00,,---,0.00,VWS V14.01,2013-07-20 17:45:00,
2013-07-20 13:50:00,65.8,36.7,17.72,South,191,0.0,0.0,34,0.00,,---,0.00,VWS V14.01,2013-07-20 17:50:00,
2013-07-20 13:55:00,65.8,36.7,17.72,NNW,337,0.0,0.0,34,0.00,,---,0.00,VWS V14.01,2013-07-20 17:55:00,
2013-07-20 14:00:00,65.8,36.7,17.72,NE,48,0.0,0.0,34,0.00,,---,0.00,VWS V14.01,2013-07-20 18:00:00,
2013-07-20 14:05:00,66.2,37.0,17.72,NE,49,0.0,0.0,34,0.00,,---,0.00,VWS V14.01,2013-07-20 18:05:00,
2013-07-20 14:10:00,66.4,37.2,17.72,West,274,0.0,0.0,34,0.00,,---,0.00,VWS V14.01,2013-07-20 18:10:00,
2013-07-20 14:15:00,66.0,36.9,17.72,South,186,0.0,0.0,34,0.00,,---,0.00,VWS V14.01,2013-07-20 18:15:00,
2013-07-20 14:20:00,66.2,37.0,17.72,SSE,168,0.0,0.0,34,0.00,,---,0.00,VWS V14.01,2013-07-20 18:20:00,
2013-07-20 14:25:00,66.2,37.0,17.72,SSE,168,0.0,0.0,34,0.00,,---,0.00,VWS V14.01,2013-07-20 18:25:00,
2013-07-20 14:30:00,66.2,37.0,17.72,ENE,61,0.0,0.0,34,0.00,,---,0.00,VWS V14.01,2013-07-20 18:30:00,
2013-07-20 14:36:00,66.4,37.2,17.72,South,183,0.0,0.0,34,0.00,,---,0.00,VWS V14.01,2013-07-20 18:36:00,
2013-07-20 14:41:00,66.2,37.0,17.72,WSW,239,0.0,0.0,34,0.00,,---,0.00,VWS V14.01,2013-07-20 18:41:00,
2013-07-20 14:46:00,66.4,37.2,17.72,ENE,68,0.0,0.0,34,0.00,,---,0.00,VWS V14.01,2013-07-20 18:46:00,
2013-07-20 14:51:00,66.4,37.2,17.72,ENE,78,0.0,0.0,34,0.00,,---,0.00,VWS V14.01,2013-07-20 18:51:00,
2013-07-20 14:56:00,66.6,37.3,17.72,SE,126,0.0,0.0,34,0.00,,---,0.00,VWS V14.01,2013-07-20 18:56:00,
2013-07-20 15:01:00,66.6,37.3,17.72,SSE,167,3.1,3.1,34,0.00,,---,0.00,VWS V14.01,2013-07-20 19:01:00,
2013-07-20 15:06:00,66.6,37.3,17.72,WSW,252,0.0,0.0,34,0.00,,---,0.00,VWS V14.01,2013-07-20 19:06:00,
2013-07-20 15:11:00,66.7,37.5,17.72,WSW,252,0.0,0.0,34,0.00,,---,0.00,VWS V14.01,2013-07-20 19:11:00,
2013-07-20 15:16:00,66.9,37.7,17.72,WSW,252,0.0,0.0,34,0.00,,---,0.00,VWS V14.01,2013-07-20 19:16:00,
2013-07-20 15:21:00,67.5,38.1,17.72,WSW,252,0.0,0.0,34,0.00,,---,0.00,VWS V14.01,2013-07-20 19:21:00,
2013-07-20 15:26:00,67.6,38.3,17.72,WSW,252,0.0,0.0,34,0.00,,---,0.00,VWS V14.01,2013-07-20 19:26:00,
2013-07-20 15:31:00,67.8,38.5,17.72,WSW,252,0.0,0.0,34,0.00,,---,0.00,VWS V14.01,2013-07-20 19:31:00,
2013-07-20 15:36:00,67.8,38.5,17.72,WSW,252,0.0,0.0,34,0.00,,---,0.00,VWS V14.01,2013-07-20 19:36:00,
2013-07-20 15:42:00,68.0,37.8,17.72,WSW,252,0.0,0.0,33,0.00,,---,0.00,VWS V14.01,2013-07-20 19:42:00,
2013-07-20 15:47:00,68.4,38.2,17.72,WSW,255,0.0,0.0,33,0.00,,---,0.00,VWS V14.01,2013-07-20 19:47:00,
2013-07-20 15:52:00,68.7,38.5,17.72,WSW,255,0.0,0.0,33,0.00,,---,0.00,VWS V14.01,2013-07-20 19:52:00,
2013-07-20 15:57:00,69.3,39.0,17.72,SW,224,0.0,0.0,33,0.00,,---,0.00,VWS V14.01,2013-07-20 19:57:00,
2013-07-20 16:02:00,69.6,39.3,17.72,SW,224,0.0,0.0,33,0.00,,---,0.00,VWS V14.01,2013-07-20 20:02:00,
2013-07-20 16:07:00,70.0,38.8,17.72,SW,224,0.0,0.0,32,0.00,,---,0.00,VWS V14.01,2013-07-20 20:07:00,
2013-07-20 16:12:00,70.2,39.0,17.72,SW,224,0.0,0.0,32,0.00,,---,0.00,VWS V14.01,2013-07-20 20:12:00,
2013-07-20 16:17:00,70.0,39.6,17.72,SSW,198,0.0,0.0,33,0.00,,---,0.00,VWS V14.01,2013-07-20 20:17:00,
2013-07-20 16:22:00,69.6,39.3,17.72,NE,42,0.0,0.0,33,0.00,,---,0.00,VWS V14.01,2013-07-20 20:22:00,
2013-07-20 16:27:00,69.4,39.1,17.72,NNE,29,3.1,3.1,33,0.00,,---,0.00,VWS V14.01,2013-07-20 20:27:00,
2013-07-20 16:32:00,69.1,38.8,17.72,North,357,0.0,0.0,33,0.00,,---,0.00,VWS V14.01,2013-07-20 20:32:00,
2013-07-20 16:37:00,69.1,38.8,17.72,North,357,0.0,0.0,33,0.00,,---,0.00,VWS V14.01,2013-07-20 20:37:00,
2013-07-20 16:42:00,69.1,38.8,17.72,North,357,0.0,0.0,33,0.00,,---,0.00,VWS V14.01,2013-07-20 20:42:00,
2013-07-20 16:47:00,69.1,38.8,17.72,North,357,0.0,0.0,33,0.00,,---,0.00,VWS V14.01,2013-07-20 20:47:00,
2013-07-20 16:52:00,69.1,38.8,17.72,North,357,0.0,0.0,33,0.00,,---,0.00,VWS V14.01,2013-07-20 20:52:00,
2013-07-20 16:57:00,69.1,38.8,17.72,North,4,0.0,0.0,33,0.00,,---,0.00,VWS V14.01,2013-07-20 20:57:00,
2013-07-20 17:02:00,68.7,38.5,17.72,SW,229,3.1,3.1,33,0.00,,---,0.00,VWS V14.01,2013-07-20 21:02:00,
2013-07-20 17:07:00,68.9,38.6,17.72,SE,125,0.0,0.0,33,0.00,,---,0.00,VWS V14.01,2013-07-20 21:07:00,
2013-07-20 17:12:00,68.7,38.5,17.72,SE,125,0.0,0.0,33,0.00,,---,0.00,VWS V14.01,2013-07-20 21:12:00,
2013-07-20 17:17:00,68.7,38.5,17.72,SE,125,0.0,0.0,33,0.00,,---,0.00,VWS V14.01,2013-07-20 21:17:00,
2013-07-20 17:22:00,68.5,38.3,17.72,SE,125,0.0,0.0,33,0.00,,---,0.00,VWS V14.01,2013-07-20 21:22:00,
2013-07-20 17:27:00,68.5,38.3,17.72,SE,130,0.0,0.0,33,0.00,,---,0.00,VWS V14.01,2013-07-20 21:27:00,
2013-07-20 17:33:00,68.5,38.3,17.72,SSW,192,0.0,0.0,33,0.00,,---,0.00,VWS V14.01,2013-07-20 21:33:00,
2013-07-20 17:38:00,68.4,38.2,17.72,South,172,0.0,0.0,33,0.00,,---,0.00,VWS V14.01,2013-07-20 21:38:00,
2013-07-20 17:43:00,68.4,38.2,17.72,South,174,0.0,0.0,33,0.00,,---,0.00,VWS V14.01,2013-07-20 21:43:00,
2013-07-20 17:48:00,68.4,38.2,17.72,SSE,164,0.0,0.0,33,0.00,,---,0.00,VWS V14.01,2013-07-20 21:48:00,
2013-07-20 17:53:00,68.5,38.3,17.72,North,353,0.0,2.2,33,0.00,,---,0.00,VWS V14.01,2013-07-20 21:53:00,
2013-07-20 17:58:00,68.7,38.5,17.72,SSW,206,0.0,0.0,33,0.00,,---,0.00,VWS V14.01,2013-07-20 21:58:00,
2013-07-20 18:03:00,69.1,38.8,17.72,West,271,0.0,0.0,33,0.00,,---,0.00,VWS V14.01,2013-07-20 22:03:00,
2013-07-20 18:08:00,69.3,39.0,17.72,WNW,297,0.0,0.0,33,0.00,,---,0.00,VWS V14.01,2013-07-20 22:08:00,
2013-07-20 18:13:00,69.4,39.1,17.72,SSW,212,0.0,0.0,33,0.00,,---,0.00,VWS V14.01,2013-07-20 22:13:00,
2013-07-20 18:18:00,69.4,39.1,17.72,North,10,0.0,0.0,33,0.00,,---,0.00,VWS V14.01,2013-07-20 22:18:00,
2013-07-20 18:23:00,69.3,39.0,17.72,North,11,0.0,0.0,33,0.00,,---,0.00,VWS V14.01,2013-07-20 22:23:00,
2013-07-20 18:28:00,69.3,39.0,17.72,NNE,29,0.0,0.0,33,0.00,,---,0.00,VWS V14.01,2013-07-20 22:28:00,
2013-07-20 18:33:00,69.3,39.0,17.72,NNE,29,0.0,0.0,33,0.00,,---,0.00,VWS V14.01,2013-07-20 22:33:00,
2013-07-20 18:38:00,69.3,39.0,17.72,NNE,29,0.0,0.0,33,0.00,,---,0.00,VWS V14.01,2013-07-20 22:38:00,
2013-07-20 18:43:00,69.1,38.8,17.72,NNE,29,0.0,0.0,33,0.00,,---,0.00,VWS V14.01,2013-07-20 22:43:00,
2013-07-20 18:48:00,68.9,38.6,17.72,NNW,332,0.0,0.0,33,0.00,,---,0.00,VWS V14.01,2013-07-20 22:48:00,
2013-07-20 18:53:00,69.1,38.8,17.72,NNW,332,0.0,0.0,33,0.00,,---,0.00,VWS V14.01,2013-07-20 22:53:00,
2013-07-20 18:58:00,69.1,38.8,17.72,NNW,332,0.0,0.0,33,0.00,,---,0.00,VWS V14.01,2013-07-20 22:58:00,
2013-07-20 19:04:00,69.1,38.8,17.72,NNW,332,0.0,0.0,33,0.00,,---,0.00,VWS V14.01,2013-07-20 23:04:00,
2013-07-20 19:09:00,69.1,38.8,17.72,NNW,332,0.0,0.0,33,0.00,,---,0.00,VWS V14.01,2013-07-20 23:09:00,
2013-07-20 19:14:00,69.1,38.8,17.72,NNW,332,0.0,0.0,33,0.00,,---,0.00,VWS V14.01,2013-07-20 23:14:00,
2013-07-20 19:20:00,68.7,38.5,17.72,NNW,332,0.0,0.0,33,0.00,,---,0.00,VWS V14.01,2013-07-20 23:20:00,
2013-07-20 19:25:00,68.4,38.2,17.72,NNW,332,0.0,0.0,33,0.00,,---,0.00,VWS V14.01,2013-07-20 23:25:00,
2013-07-20 19:30:00,68.2,38.0,17.72,NNW,332,0.0,0.0,33,0.00,,---,0.00,VWS V14.01,2013-07-20 23:30:00,
2013-07-20 19:35:00,68.0,37.8,17.72,NNW,332,0.0,0.0,33,0.00,,---,0.00,VWS V14.01,2013-07-20 23:35:00,
2013-07-20 19:40:00,67.6,38.3,17.72,NNW,332,0.0,0.0,34,0.00,,---,0.00,VWS V14.01,2013-07-20 23:40:00,
2013-07-20 19:45:00,67.6,38.3,17.72,NNW,332,0.0,0.0,34,0.00,,---,0.00,VWS V14.01,2013-07-20 23:45:00,
2013-07-20 19:50:00,67.6,38.3,17.72,NNW,332,0.0,0.0,34,0.00,,---,0.00,VWS V14.01,2013-07-20 23:50:00,
2013-07-20 19:55:00,67.5,38.1,17.72,NNW,332,0.0,0.0,34,0.00,,---,0.00,VWS V14.01,2013-07-20 23:55:00,
2013-07-20 20:00:00,67.5,38.1,17.72,NNW,332,0.0,0.0,34,0.00,,---,0.00,VWS V14.01,2013-07-21 00:00:00,
2013-07-20 20:05:00,67.3,38.0,17.72,NNW,332,0.0,0.0,34,0.00,,---,0.00,VWS V14.01,2013-07-21 00:05:00,
2013-07-20 20:10:00,67.3,38.0,17.72,NNW,332,0.0,0.0,34,0.00,,---,0.00,VWS V14.01,2013-07-21 00:10:00,
2013-07-20 20:15:00,67.1,37.8,17.72,NNW,332,0.0,0.0,34,0.00,,---,0.00,VWS V14.01,2013-07-21 00:15:00,
2013-07-20 20:20:00,67.1,37.8,17.72,NNW,332,0.0,0.0,34,0.00,,---,0.00,VWS V14.01,2013-07-21 00:20:00,
2013-07-20 20:26:00,66.9,37.7,17.72,NNW,332,0.0,0.0,34,0.00,,---,0.00,VWS V14.01,2013-07-21 00:26:00,
2013-07-20 20:31:00,66.7,37.5,17.72,NNW,332,0.0,0.0,34,0.00,,---,0.00,VWS V14.01,2013-07-21 00:31:00,
2013-07-20 20:36:00,66.6,37.3,17.72,NNW,332,0.0,0.0,34,0.00,,---,0.00,VWS V14.01,2013-07-21 00:36:00,
2013-07-20 20:41:00,66.4,37.2,17.72,NNW,332,0.0,0.0,34,0.00,,---,0.00,VWS V14.01,2013-07-21 00:41:00,
2013-07-20 20:46:00,66.2,37.0,17.72,NNW,332,0.0,0.0,34,0.00,,---,0.00,VWS V14.01,2013-07-21 00:46:00,
2013-07-20 20:51:00,66.0,36.9,17.72,NNW,332,0.0,0.0,34,0.00,,---,0.00,VWS V14.01,2013-07-21 00:51:00,
2013-07-20 20:56:00,65.8,36.7,17.72,NNW,332,0.0,0.0,34,0.00,,---,0.00,VWS V14.01,2013-07-21 00:56:00,
2013-07-20 21:01:00,65.7,36.6,17.72,NNW,332,0.0,0.0,34,0.00,,---,0.00,VWS V14.01,2013-07-21 01:01:00,
2013-07-20 21:06:00,65.5,36.4,17.72,NNW,332,0.0,0.0,34,0.00,,---,0.00,VWS V14.01,2013-07-21 01:06:00,
2013-07-20 21:11:00,65.3,36.2,17.72,NNW,332,0.0,0.0,34,0.00,,---,0.00,VWS V14.01,2013-07-21 01:11:00,
2013-07-20 21:16:00,65.1,36.1,17.72,NNW,332,0.0,0.0,34,0.00,,---,0.00,VWS V14.01,2013-07-21 01:16:00,
2013-07-20 21:21:00,65.1,36.1,17.72,NNW,332,0.0,0.0,34,0.00,,---,0.00,VWS V14.01,2013-07-21 01:21:00,
2013-07-20 21:26:00,64.8,35.8,17.72,NNW,332,0.0,0.0,34,0.00,,---,0.00,VWS V14.01,2013-07-21 01:26:00,
2013-07-20 21:31:00,64.8,35.8,17.72,NNW,332,0.0,0.0,34,0.00,,---,0.00,VWS V14.01,2013-07-21 01:31:00,
2013-07-20 21:36:00,64.8,35.8,17.72,NNW,332,0.0,0.0,34,0.00,,---,0.00,VWS V14.01,2013-07-21 01:36:00,
2013-07-20 21:42:00,64.6,35.6,17.72,NNW,332,0.0,0.0,34,0.00,,---,0.00,VWS V14.01,2013-07-21 01:42:00,
2013-07-20 21:47:00,64.6,35.6,17.72,NNW,332,0.0,0.0,34,0.00,,---,0.00,VWS V14.01,2013-07-21 01:47:00,
2013-07-20 21:52:00,64.4,35.5,17.72,NNW,332,0.0,0.0,34,0.00,,---,0.00,VWS V14.01,2013-07-21 01:52:00,
2013-07-20 21:57:00,64.4,35.5,17.72,NNW,332,0.0,0.0,34,0.00,,---,0.00,VWS V14.01,2013-07-21 01:57:00,
2013-07-20 22:02:00,64.4,35.5,17.72,NNW,332,0.0,0.0,34,0.00,,---,0.00,VWS V14.01,2013-07-21 02:02:00,
2013-07-20 22:07:00,64.8,35.8,17.72,NNW,332,0.0,0.0,34,0.00,,---,0.00,VWS V14.01,2013-07-21 02:07:00,
2013-07-20 22:12:00,64.6,35.6,17.72,NNW,332,0.0,0.0,34,0.00,,---,0.00,VWS V14.01,2013-07-21 02:12:00,
2013-07-20 22:17:00,64.4,35.5,17.72,NNW,332,0.0,0.0,34,0.00,,---,0.00,VWS V14.01,2013-07-21 02:17:00,
2013-07-20 22:22:00,64.6,35.6,17.72,NNW,332,0.0,0.0,34,0.00,,---,0.00,VWS V14.01,2013-07-21 02:22:00,
2013-07-20 22:27:00,64.8,35.8,17.72,NNW,332,0.0,0.0,34,0.00,,---,0.00,VWS V14.01,2013-07-21 02:27:00,
2013-07-20 22:32:00,64.6,35.6,17.72,NNW,332,0.0,0.0,34,0.00,,---,0.00,VWS V14.01,2013-07-21 02:32:00,
2013-07-20 22:37:00,64.4,35.5,17.72,NNW,332,0.0,0.0,34,0.00,,---,0.00,VWS V14.01,2013-07-21 02:37:00,
2013-07-20 22:42:00,64.4,35.5,17.72,NNW,332,0.0,0.0,34,0.00,,---,0.00,VWS V14.01,2013-07-21 02:42:00,
2013-07-20 22:47:00,64.4,35.5,17.72,NNW,332,0.0,0.0,34,0.00,,---,0.00,VWS V14.01,2013-07-21 02:47:00,
2013-07-20 22:52:00,64.4,35.5,17.72,NNW,332,0.0,0.0,34,0.00,,---,0.00,VWS V14.01,2013-07-21 02:52:00,
2013-07-20 22:58:00,64.4,35.5,17.72,NNW,332,0.0,0.0,34,0.00,,---,0.00,VWS V14.01,2013-07-21 02:58:00,
2013-07-20 23:02:00,64.4,35.5,17.72,NNW,332,0.0,0.0,34,0.00,,---,0.00,VWS V14.01,2013-07-21 03:02:00,
2013-07-20 23:07:00,64.8,35.8,17.72,NNW,332,0.0,0.0,34,0.00,,---,0.00,VWS V14.01,2013-07-21 03:07:00,
2013-07-20 23:13:00,65.3,36.2,17.72,NNW,332,0.0,0.0,34,0.00,,---,0.00,VWS V14.01,2013-07-21 03:13:00,
2013-07-20 23:18:00,65.1,36.1,17.72,NNW,332,0.0,0.0,34,0.00,,---,0.00,VWS V14.01,2013-07-21 03:18:00,
2013-07-20 23:24:00,65.1,36.1,17.72,NNW,332,0.0,0.0,34,0.00,,---,0.00,VWS V14.01,2013-07-21 03:24:00,
2013-07-20 23:29:00,65.1,36.1,17.72,NNE,23,0.0,0.0,34,0.00,,---,0.00,VWS V14.01,2013-07-21 03:29:00,
2013-07-20 23:34:00,65.1,36.1,17.72,NNE,23,0.0,0.0,34,0.00,,---,0.00,VWS V14.01,2013-07-21 03:34:00,
2013-07-20 23:39:00,65.1,36.1,17.72,NNE,23,0.0,0.0,34,0.00,,---,0.00,VWS V14.01,2013-07-21 03:39:00,
2013-07-20 23:44:00,64.9,35.9,17.72,NNE,23,0.0,0.0,34,0.00,,---,0.00,VWS V14.01,2013-07-21 03:44:00,
2013-07-20 23:49:00,64.9,35.9,17.72,NNE,23,0.0,0.0,34,0.00,,---,0.00,VWS V14.01,2013-07-21 03:49:00,
2013-07-20 23:54:00,64.9,35.9,17.72,NNE,23,0.0,0.0,34,0.00,,---,0.00,VWS V14.01,2013-07-21 03:54:00,
2013-07-20 23:59:00,65.1,36.1,17.72,NNW,337,0.0,0.0,34,0.00,,---,0.00,VWS V14.01,2013-07-21 03:59:00,